createdAt,value
2024-03-09T00:00:17.322Z,2.95
2024-03-09T00:04:20.619Z,2.93
2024-03-09T00:08:22.216Z,3.00
2024-03-09T00:12:23.680Z,2.80
2024-03-09T00:16:25.206Z,2.76
2024-03-09T00:20:36.264Z,2.75
2024-03-09T00:24:38.158Z,2.85
2024-03-09T00:28:42.023Z,2.80
2024-03-09T00:32:44.165Z,2.52
2024-03-09T00:36:47.457Z,2.30
2024-03-09T00:40:49.431Z,2.46
2024-03-09T00:44:51.039Z,2.53
2024-03-09T00:48:52.529Z,2.59
2024-03-09T00:52:54.221Z,2.57
2024-03-09T00:56:55.808Z,2.54
2024-03-09T01:00:57.329Z,2.39
2024-03-09T01:04:58.942Z,2.17
2024-03-09T01:09:01.159Z,2.42
2024-03-09T01:13:06.214Z,2.45
2024-03-09T01:17:07.793Z,2.18
2024-03-09T01:21:10.630Z,2.24
2024-03-09T01:25:12.378Z,1.96
2024-03-09T01:29:14.133Z,1.98
2024-03-09T01:33:15.741Z,2.00
2024-03-09T01:37:20.881Z,2.01
2024-03-09T01:41:26.980Z,2.12
2024-03-09T01:45:28.474Z,2.08
2024-03-09T01:49:31.792Z,1.98
2024-03-09T01:53:36.404Z,1.98
2024-03-09T01:57:38.866Z,1.91
2024-03-09T02:01:41.412Z,1.81
2024-03-09T02:05:46.653Z,1.98
2024-03-09T02:09:49.851Z,2.11
2024-03-09T02:13:52.415Z,1.96
2024-03-09T02:17:54.392Z,2.05
2024-03-09T02:21:57.098Z,1.47
2024-03-09T02:26:00.842Z,1.79
2024-03-09T02:30:03.128Z,1.85
2024-03-09T02:34:04.642Z,1.98
2024-03-09T02:38:06.451Z,1.92
2024-03-09T02:42:10.027Z,1.77
2024-03-09T02:46:12.011Z,1.68
2024-03-09T02:50:13.926Z,1.75
2024-03-09T02:54:16.482Z,1.93
2024-03-09T02:58:18.512Z,1.91
2024-03-09T03:02:38.431Z,1.90
2024-03-09T03:06:40.052Z,2.04
2024-03-09T03:10:42.096Z,1.90
2024-03-09T03:14:45.065Z,1.95
2024-03-09T03:18:50.725Z,1.77
2024-03-09T03:22:52.227Z,1.67
2024-03-09T03:26:53.962Z,1.52
2024-03-09T03:30:55.457Z,1.72
2024-03-09T03:34:56.993Z,1.58
2024-03-09T03:38:58.545Z,1.38
2024-03-09T03:43:00.250Z,1.57
2024-03-09T03:47:01.774Z,1.46
2024-03-09T03:51:03.377Z,1.41
2024-03-09T03:55:10.085Z,1.35
2024-03-09T03:59:12.318Z,1.43
2024-03-09T04:03:17.486Z,1.43
2024-03-09T04:07:19.018Z,1.36
2024-03-09T04:11:20.556Z,1.47
2024-03-09T04:15:22.137Z,1.44
2024-03-09T04:19:23.690Z,1.20
2024-03-09T04:23:25.487Z,1.27
2024-03-09T04:27:27.066Z,1.25
2024-03-09T04:31:28.822Z,1.39
2024-03-09T04:35:30.347Z,1.33
2024-03-09T04:39:37.328Z,1.33
2024-03-09T04:43:41.527Z,1.26
2024-03-09T04:47:43.453Z,1.41
2024-03-09T04:51:45.042Z,1.30
2024-03-09T04:55:52.033Z,1.27
2024-03-09T04:59:53.603Z,1.23
2024-03-09T05:03:55.097Z,1.25
2024-03-09T05:07:56.539Z,0.93
2024-03-09T05:11:59.135Z,1.11
2024-03-09T05:16:00.798Z,1.01
2024-03-09T05:20:12.213Z,0.86
2024-03-09T05:24:13.831Z,0.95
2024-03-09T05:28:17.726Z,1.02
2024-03-09T05:32:23.476Z,1.00
2024-03-09T05:36:25.124Z,1.17
2024-03-09T05:40:28.317Z,1.08
2024-03-09T05:44:29.848Z,1.20
2024-03-09T05:48:34.104Z,0.99
2024-03-09T05:52:35.609Z,0.86
2024-03-09T05:56:38.384Z,1.01
2024-03-09T06:00:39.911Z,1.16
2024-03-09T06:04:42.152Z,1.22
2024-03-09T06:08:43.653Z,0.93
2024-03-09T06:12:48.297Z,1.17
2024-03-09T06:16:50.033Z,1.06
2024-03-09T06:20:52.163Z,1.29
2024-03-09T06:24:53.753Z,1.16
2024-03-09T06:28:55.261Z,1.30
2024-03-09T06:32:59.188Z,1.39
2024-03-09T06:37:00.901Z,1.50
2024-03-09T06:41:03.635Z,1.61
2024-03-09T06:45:09.231Z,1.72
2024-03-09T06:49:10.747Z,1.78
2024-03-09T06:53:12.330Z,1.74
2024-03-09T06:57:13.941Z,1.87
2024-03-09T07:01:21.813Z,2.02
2024-03-09T07:05:23.564Z,2.16
2024-03-09T07:09:25.977Z,2.11
2024-03-09T07:13:27.654Z,2.50
2024-03-09T07:17:32.860Z,2.47
2024-03-09T07:21:34.472Z,2.65
2024-03-09T07:25:36.044Z,2.75
2024-03-09T07:29:37.861Z,3.02
2024-03-09T07:33:39.531Z,3.06
2024-03-09T07:37:46.978Z,3.50
2024-03-09T07:41:48.574Z,3.48
2024-03-09T07:45:50.132Z,3.63
2024-03-09T07:49:51.703Z,3.78
2024-03-09T07:53:53.638Z,3.87
2024-03-09T07:58:08.784Z,3.94
2024-03-09T08:02:16.731Z,4.34
2024-03-09T08:06:19.723Z,4.54
2024-03-09T08:10:25.338Z,4.82
2024-03-09T08:14:31.326Z,5.03
2024-03-09T08:18:33.355Z,5.03
2024-03-09T08:22:35.359Z,5.20
2024-03-09T08:26:37.108Z,5.11
2024-03-09T08:30:38.754Z,5.10
2024-03-09T08:34:40.302Z,5.56
2024-03-09T08:38:42.223Z,5.88
2024-03-09T08:42:45.338Z,6.12
2024-03-09T08:46:46.942Z,6.12
2024-03-09T08:50:48.511Z,6.35
2024-03-09T08:54:51.243Z,6.70
2024-03-09T08:58:59.718Z,6.94
2024-03-09T09:03:04.377Z,6.86
2024-03-09T09:07:06.040Z,7.38
2024-03-09T09:11:07.706Z,7.41
2024-03-09T09:15:10.222Z,7.54
2024-03-09T09:19:11.953Z,7.74
2024-03-09T09:23:13.561Z,8.24
2024-03-09T09:27:15.138Z,8.43
2024-03-09T09:31:16.900Z,8.48
2024-03-09T09:35:18.851Z,8.89
2024-03-09T09:39:26.284Z,9.08
2024-03-09T09:43:29.441Z,9.62
2024-03-09T09:47:31.823Z,9.53
2024-03-09T09:51:36.769Z,9.40
2024-03-09T09:55:38.830Z,9.64
2024-03-09T09:59:40.592Z,9.83
2024-03-09T10:03:42.153Z,9.98
2024-03-09T10:07:58.808Z,10.20
2024-03-09T10:12:01.231Z,10.27
2024-03-09T10:16:03.965Z,10.55
2024-03-09T10:20:07.610Z,11.12
2024-03-09T10:24:09.396Z,10.90
2024-03-09T10:28:12.132Z,10.95
2024-03-09T10:32:13.924Z,10.98
2024-03-09T10:36:16.813Z,11.47
2024-03-09T10:40:21.780Z,11.73
2024-03-09T10:44:24.991Z,11.71
2024-03-09T10:48:28.404Z,11.87
2024-03-09T10:52:34.801Z,12.59
2024-03-09T10:56:40.796Z,12.46
2024-03-09T11:00:50.701Z,12.60
2024-03-09T11:04:52.823Z,12.67
2024-03-09T11:08:57.882Z,13.04
2024-03-09T11:12:59.632Z,12.77
2024-03-09T11:17:01.906Z,12.72
2024-03-09T11:21:04.057Z,11.58
2024-03-09T11:25:12.393Z,11.18
2024-03-09T11:29:14.558Z,11.18
2024-03-09T11:33:19.509Z,10.95
2024-03-09T11:37:21.010Z,10.38
2024-03-09T11:41:26.032Z,10.35
2024-03-09T11:45:30.536Z,9.90
2024-03-09T11:49:34.614Z,10.19
2024-03-09T11:53:36.469Z,9.93
2024-03-09T11:57:39.343Z,9.77
2024-03-09T12:01:41.522Z,9.71
2024-03-09T12:05:44.360Z,9.63
2024-03-09T12:09:46.627Z,9.90
2024-03-09T12:13:48.654Z,9.65
2024-03-09T12:17:50.362Z,9.58
2024-03-09T12:21:53.251Z,9.54
2024-03-09T12:25:54.924Z,9.52
2024-03-09T12:29:56.794Z,9.57
2024-03-09T12:33:59.444Z,9.38
2024-03-09T12:38:14.081Z,9.53
2024-03-09T12:42:16.263Z,9.53
2024-03-09T12:46:19.156Z,9.67
2024-03-09T12:50:22.504Z,9.50
2024-03-09T12:54:25.820Z,9.43
2024-03-09T12:58:27.380Z,9.45
2024-03-09T13:02:34.664Z,9.54
2024-03-09T13:06:37.436Z,9.35
2024-03-09T13:10:41.332Z,9.30
2024-03-09T13:14:43.808Z,9.39
2024-03-09T13:18:48.579Z,9.72
2024-03-09T13:22:50.667Z,10.04
2024-03-09T13:26:52.975Z,10.19
2024-03-09T13:30:54.757Z,10.60
2024-03-09T13:34:56.301Z,11.33
2024-03-09T13:38:57.815Z,12.98
2024-03-09T13:42:59.711Z,12.42
2024-03-09T13:47:01.392Z,13.47
2024-03-09T13:51:03.864Z,13.25
2024-03-09T13:55:05.918Z,12.59
2024-03-09T13:59:15.131Z,12.26
2024-03-09T14:03:16.949Z,11.76
2024-03-09T14:07:23.616Z,11.50
2024-03-09T14:11:30.052Z,11.46
2024-03-09T14:15:34.175Z,10.62
2024-03-09T14:19:40.303Z,10.80
2024-03-09T14:23:43.948Z,10.95
2024-03-09T14:27:45.637Z,10.96
2024-03-09T14:31:47.854Z,11.28
2024-03-09T14:35:49.810Z,11.13
2024-03-09T14:39:51.409Z,10.95
2024-03-09T14:43:53.897Z,10.94
2024-03-09T14:48:00.285Z,10.75
2024-03-09T14:52:02.395Z,10.74
2024-03-09T14:56:05.356Z,10.93
2024-03-09T15:00:16.170Z,10.52
2024-03-09T15:04:17.699Z,10.70
2024-03-09T15:08:20.064Z,10.53
2024-03-09T15:12:22.180Z,10.22
2024-03-09T15:16:25.812Z,10.34
2024-03-09T15:20:28.346Z,10.38
2024-03-09T15:24:30.100Z,10.33
2024-03-09T15:28:31.866Z,10.29
2024-03-09T15:32:33.552Z,10.21
2024-03-09T15:36:38.244Z,10.31
2024-03-09T15:40:39.876Z,10.07
2024-03-09T15:44:41.388Z,10.12
2024-03-09T15:48:42.926Z,9.99
2024-03-09T15:52:45.092Z,10.08
2024-03-09T15:56:48.544Z,10.27
2024-03-09T16:00:50.132Z,10.45
2024-03-09T16:04:51.671Z,10.22
2024-03-09T16:08:53.906Z,10.18
2024-03-09T16:12:56.881Z,10.07
2024-03-09T16:16:58.457Z,9.91
2024-03-09T16:21:07.785Z,9.99
2024-03-09T16:25:10.189Z,9.80
2024-03-09T16:29:11.769Z,10.07
2024-03-09T16:33:15.051Z,9.81
2024-03-09T16:37:16.811Z,9.82
2024-03-09T16:41:24.241Z,9.90
2024-03-09T16:45:29.034Z,9.89
2024-03-09T16:49:33.816Z,9.95
2024-03-09T16:53:35.725Z,9.88
2024-03-09T16:57:38.593Z,9.70
2024-03-09T17:01:44.730Z,9.68
2024-03-09T17:05:46.455Z,9.60
2024-03-09T17:09:48.046Z,9.53
2024-03-09T17:13:52.076Z,9.47
2024-03-09T17:18:00.458Z,9.47
2024-03-09T17:22:03.838Z,9.63
2024-03-09T17:26:05.517Z,9.52
2024-03-09T17:30:08.073Z,9.72
2024-03-09T17:34:09.580Z,9.56
2024-03-09T17:38:11.845Z,9.46
2024-03-09T17:42:14.019Z,9.60
2024-03-09T17:46:17.328Z,9.48
2024-03-09T17:50:20.378Z,9.53
2024-03-09T17:54:22.213Z,9.40
2024-03-09T17:58:23.793Z,9.38
2024-03-09T18:02:28.010Z,9.21
2024-03-09T18:06:30.668Z,9.23
2024-03-09T18:10:33.008Z,9.20
2024-03-09T18:14:34.822Z,9.10
2024-03-09T18:18:36.976Z,9.05
2024-03-09T18:22:38.587Z,8.92
2024-03-09T18:26:40.061Z,8.83
2024-03-09T18:30:41.683Z,8.95
2024-03-09T18:34:43.360Z,9.16
2024-03-09T18:38:45.367Z,8.99
2024-03-09T18:42:47.704Z,8.86
2024-03-09T18:46:54.410Z,8.83
2024-03-09T18:50:57.019Z,8.97
2024-03-09T18:54:58.620Z,8.92
2024-03-09T18:59:01.635Z,8.79
2024-03-09T19:03:07.887Z,8.81
2024-03-09T19:07:10.883Z,8.85
2024-03-09T19:11:12.699Z,8.68
2024-03-09T19:15:15.060Z,8.56
2024-03-09T19:19:16.673Z,8.53
2024-03-09T19:23:18.359Z,8.27
2024-03-09T19:27:20.179Z,8.25
2024-03-09T19:31:23.699Z,8.13
2024-03-09T19:35:27.865Z,7.71
2024-03-09T19:39:29.925Z,7.69
2024-03-09T19:43:31.439Z,7.79
2024-03-09T19:47:33.339Z,7.72
2024-03-09T19:51:34.928Z,7.42
2024-03-09T19:55:36.740Z,7.21
2024-03-09T19:59:38.384Z,7.45
2024-03-09T20:03:40.688Z,7.18
2024-03-09T20:07:42.682Z,7.08
2024-03-09T20:11:44.866Z,6.81
2024-03-09T20:15:46.441Z,6.89
2024-03-09T20:19:48.433Z,6.73
2024-03-09T20:23:50.469Z,6.77
2024-03-09T20:27:52.648Z,6.91
2024-03-09T20:31:54.807Z,6.96
2024-03-09T20:35:57.853Z,6.77
2024-03-09T20:40:07.376Z,6.73
2024-03-09T20:44:09.941Z,6.63
2024-03-09T20:48:14.228Z,6.83
2024-03-09T20:52:19.567Z,6.77
2024-03-09T20:56:21.936Z,6.43
2024-03-09T21:00:24.693Z,6.48
2024-03-09T21:04:26.518Z,6.48
2024-03-09T21:08:28.163Z,6.56
2024-03-09T21:12:31.140Z,6.45
2024-03-09T21:16:32.799Z,6.49
2024-03-09T21:20:34.619Z,6.41
2024-03-09T21:24:36.374Z,6.56
2024-03-09T21:28:40.633Z,6.89
2024-03-09T21:32:44.168Z,7.02
2024-03-09T21:36:47.199Z,6.98
2024-03-09T21:40:49.842Z,6.38
2024-03-09T21:44:52.477Z,6.53
2024-03-09T21:48:54.261Z,6.32
2024-03-09T21:52:56.359Z,6.46
2024-03-09T21:56:57.937Z,6.30
2024-03-09T22:00:59.461Z,6.22
2024-03-09T22:05:01.088Z,6.11
2024-03-09T22:09:03.037Z,6.25
2024-03-09T22:13:05.370Z,6.23
2024-03-09T22:17:07.069Z,6.22
2024-03-09T22:21:10.851Z,6.11
2024-03-09T22:25:14.636Z,6.15
2024-03-09T22:29:19.380Z,6.15
2024-03-09T22:33:21.006Z,6.09
2024-03-09T22:37:22.638Z,6.05
2024-03-09T22:41:24.327Z,6.19
2024-03-09T22:45:26.765Z,5.98
2024-03-09T22:49:28.242Z,6.32
2024-03-09T22:53:30.696Z,5.96
2024-03-09T22:57:32.357Z,5.87
2024-03-09T23:01:49.474Z,5.87
2024-03-09T23:05:51.092Z,5.91
2024-03-09T23:09:52.598Z,5.83
2024-03-09T23:13:54.249Z,5.98
2024-03-09T23:17:56.389Z,5.92
2024-03-09T23:22:01.791Z,5.98
2024-03-09T23:26:03.457Z,5.78
2024-03-09T23:30:05.477Z,5.66
2024-03-09T23:34:08.097Z,5.69
2024-03-09T23:38:10.364Z,5.63
2024-03-09T23:42:12.840Z,5.50
2024-03-09T23:46:14.316Z,5.54
2024-03-09T23:50:18.360Z,5.56
2024-03-09T23:54:20.523Z,5.55
2024-03-09T23:58:21.957Z,5.48
